Westview Chinook — VG3278 — position and weather

sailwx.info

Track history (hours):
 
Tides and Currents Weather Stations Pressure Air Temp Water Temp Dewpoint Dewpoint Depression Visibility Wind Speed Wind Dir Waves Ship Positions

Westview Chinook

Last reported at 2016-Jun-26 08:33 UTC. Time now 2016-Jun-26 11:56 UTC.
Position N 49°13' W 122°52'.

Length 15 m.

Type: Tug. MMSI: 316005622.

Date/timePositionNaut miles runAvg speedWind from/ knotsBaromVisibWave heightAir tempDewpointWater temp
2016-Jun-26 08:33N 49°13' W 122°52'4 3.8
2016-Jun-26 07:33N 49°12' W 122°57'1 1.3
2016-Jun-26 06:33N 49°12' W 122°55'5 5.5
2016-Jun-26 05:33N 49°09' W 123°02'1 0.7
2016-Jun-26 04:33N 49°08' W 123°03'0 0.0
2016-Jun-26 03:33N 49°08' W 123°03'0 0.0
2016-Jun-26 02:33N 49°08' W 123°03'1 1.2
2016-Jun-26 01:33N 49°07' W 123°04'4 4.5
2016-Jun-26 00:33N 49°07' W 123°11'4 3.9
2016-Jun-25 23:33N 49°07' W 123°17'4 4.2
2016-Jun-25 22:33N 49°07' W 123°23'6 6.3
2016-Jun-25 21:33N 49°09' W 123°32'7 6.7
2016-Jun-25 20:34N 49°11' W 123°42'6 6.3
2016-Jun-25 19:33N 49°12' W 123°52'3 2.7
2016-Jun-25 18:33N 49°10' W 123°53'7 7.3
2016-Jun-25 17:33N 49°11' W 123°42'1110.6
2016-Jun-25 16:33N 49°08' W 123°27'1010.1
2016-Jun-25 15:33N 49°07' W 123°11'1010.3
2016-Jun-25 14:33N 49°10' W 122°56'8 7.7
2016-Jun-25 13:33N 49°14' W 122°46'0 0.0
2016-Jun-25 12:33N 49°14' W 122°46'0 0.0
2016-Jun-25 11:33N 49°14' W 122°46'0 0.0
2016-Jun-25 10:33N 49°14' W 122°46'0 0.0
2016-Jun-25 09:33N 49°14' W 122°46'0 0.0
2016-Jun-25 08:33N 49°14' W 122°46'0 0.0
2016-Jun-25 07:33N 49°14' W 122°46'6 5.8
2016-Jun-25 06:33N 49°12' W 122°54'7 6.6
2016-Jun-25 05:33N 49°12' W 123°04'2 2.0
2016-Jun-25 04:33N 49°12' W 123°08'6 6.0
2016-Jun-25 03:34N 49°15' W 123°16'7 7.3
2016-Jun-25 02:33N 49°12' W 123°05'8 8.2
2016-Jun-25 01:34N 49°13' W 122°53'5 4.6
2016-Jun-25 00:33N 49°14' W 122°46'0 0.0
2016-Jun-24 23:33N 49°14' W 122°46'0 0.0
2016-Jun-24 22:33N 49°14' W 122°46'0 0.0
2016-Jun-24 21:33N 49°14' W 122°46'0 0.0
2016-Jun-24 20:33N 49°14' W 122°46'0 0.0
2016-Jun-24 19:32N 49°14' W 122°46'0 0.0
2016-Jun-24 18:33N 49°14' W 122°46'0 0.0
2016-Jun-24 17:33N 49°14' W 122°46'0 0.0
2016-Jun-24 16:33N 49°14' W 122°46'0 0.0
2016-Jun-24 15:33N 49°14' W 122°46'0 0.0
2016-Jun-24 14:33N 49°14' W 122°46'0 0.0
2016-Jun-24 13:33N 49°14' W 122°46'0 0.0
2016-Jun-24 12:33N 49°14' W 122°46'0 0.0
2016-Jun-24 11:33N 49°14' W 122°46'0 0.0
2016-Jun-24 10:33N 49°14' W 122°46'0 0.0
2016-Jun-24 09:33N 49°14' W 122°46'0 0.0
2016-Jun-24 08:33N 49°14' W 122°46'2 2.2
2016-Jun-24 07:33N 49°13' W 122°49'10 3.4
2016-Jun-24 04:33N 49°12' W 123°04'4 4.3
2016-Jun-24 03:33N 49°13' W 123°11'5 4.9
2016-Jun-24 02:33N 49°16' W 123°17'5 4.6
2016-Jun-24 01:33N 49°18' W 123°23'5 5.1
2016-Jun-24 00:33N 49°20' W 123°30'5 5.1
2016-Jun-23 23:33N 49°22' W 123°38'5 4.9
2016-Jun-23 22:33N 49°24' W 123°44'5 4.5
2016-Jun-23 21:33N 49°26' W 123°51'4 4.4
2016-Jun-23 20:33N 49°27' W 123°57'5 4.5
2016-Jun-23 19:33N 49°30' W 124°02'5 4.7
2016-Jun-23 18:33N 49°35' W 124°05'5 4.9
2016-Jun-23 17:33N 49°40' W 124°05'6 5.6
2016-Jun-23 16:32N 49°45' W 124°02'5 4.6
2016-Jun-23 15:33N 49°47' W 123°55'3 2.1
2016-Jun-23 14:19N 49°45' W 123°54'3 3.6
2016-Jun-23 13:33N 49°46' W 123°57'1 0.9
2016-Jun-23 12:33N 49°46' W 123°56'2 1.6
2016-Jun-23 11:23N 49°45' W 123°54'3 3.3
2016-Jun-23 10:33N 49°47' W 123°56'3 2.7
2016-Jun-23 09:33N 49°46' W 123°60'6 6.5
2016-Jun-23 08:33N 49°40' W 124°05'7 7.5
2016-Jun-23 07:33N 49°33' W 124°04'15 7.6
2016-Jun-23 05:33N 49°24' W 123°45'8 7.6
2016-Jun-23 04:33N 49°21' W 123°34'7 7.4
2016-Jun-23 03:33N 49°18' W 123°24'6 6.4
2016-Jun-23 02:33N 49°15' W 123°15'5 5.4
2016-Jun-23 01:33N 49°12' W 123°08'0 0.0
2016-Jun-23 00:33N 49°12' W 123°08'0 0.0
2016-Jun-22 23:33N 49°12' W 123°08'0 0.0
2016-Jun-22 22:33N 49°12' W 123°08'0 0.0
2016-Jun-22 21:33N 49°12' W 123°08'6 5.9
2016-Jun-22 20:33N 49°11' W 122°59'3 2.8
2016-Jun-22 19:33N 49°11' W 122°55'2 1.6
2016-Jun-22 18:33N 49°11' W 122°58'5 4.7
2016-Jun-22 17:33N 49°12' W 123°05'1 0.6
2016-Jun-22 16:33N 49°12' W 123°06'5 5.0
2016-Jun-22 15:33N 49°13' W 123°13'2 2.1
2016-Jun-22 14:33N 49°15' W 123°15'4 4.4
2016-Jun-22 13:33N 49°13' W 123°09'4 3.5
2016-Jun-22 12:33N 49°12' W 123°04'1 1.3
2016-Jun-22 11:33N 49°12' W 123°06'0 0.0
2016-Jun-22 10:33N 49°12' W 123°06'0 0.0
2016-Jun-22 09:34N 49°12' W 123°06'5 5.3
2016-Jun-22 08:33N 49°14' W 123°14'9 9.2
2016-Jun-22 07:33N 49°19' W 123°25'9 9.2
2016-Jun-22 06:33N 49°28' W 123°28'0 0.2
2016-Jun-22 05:33N 49°29' W 123°28'6 6.5
2016-Jun-22 04:33N 49°22' W 123°26'6 5.7
2016-Jun-22 03:33N 49°18' W 123°21'7 6.5
2016-Jun-22 02:33N 49°14' W 123°13'5 5.5
2016-Jun-22 01:33N 49°12' W 123°05'4 4.1
2016-Jun-22 00:33N 49°11' W 122°59'6 6.5
2016-Jun-21 23:34N 49°13' W 122°50'9 8.7
2016-Jun-21 22:33N 49°13' W 122°36'2 0.4
2016-Jun-21 18:32N 49°11' W 122°35'6 5.6
2016-Jun-21 17:33N 49°13' W 122°43'7 6.9
2016-Jun-21 16:34N 49°13' W 122°54'6 6.2
2016-Jun-21 15:33N 49°12' W 123°03'3 3.3
2016-Jun-21 14:34N 49°12' W 123°08'6 5.6
2016-Jun-21 13:33N 49°15' W 123°16'9 9.0
2016-Jun-21 12:33N 49°15' W 123°29'9 9.5
2016-Jun-21 11:33N 49°13' W 123°44'7 7.4
2016-Jun-21 10:33N 49°09' W 123°53'4 4.2
2016-Jun-21 09:33N 49°13' W 123°50'8 7.8
2016-Jun-21 08:33N 49°12' W 123°38'8 7.6
2016-Jun-21 07:33N 49°09' W 123°27'16 8.2
2016-Jun-21 05:33N 49°09' W 123°02'5 5.2
2016-Jun-21 04:33N 49°12' W 122°56'1 1.1
2016-Jun-21 03:33N 49°11' W 122°55'6 6.3
2016-Jun-21 02:33N 49°12' W 123°04'1 0.9
2016-Jun-21 01:33N 49°12' W 123°03'0 0.1
2016-Jun-21 00:33N 49°12' W 123°03'0 0.0
2016-Jun-20 23:33N 49°12' W 123°03'0 0.0
2016-Jun-20 22:33N 49°12' W 123°03'0 0.0
2016-Jun-20 21:33N 49°12' W 123°03'0 0.0
2016-Jun-20 20:33N 49°12' W 123°03'0 0.0
2016-Jun-20 19:33N 49°12' W 123°03'0 0.0
2016-Jun-20 18:33N 49°12' W 123°03'2 1.7
2016-Jun-20 17:33N 49°12' W 123°05'0 0.0
2016-Jun-20 16:33N 49°12' W 123°05'2 1.7
2016-Jun-20 15:33N 49°12' W 123°03'0 0.0
2016-Jun-20 14:34N 49°12' W 123°03'0 0.0
2016-Jun-20 13:33N 49°12' W 123°03'0 0.0
2016-Jun-20 12:33N 49°12' W 123°03'0 0.0
2016-Jun-20 11:33N 49°12' W 123°03'0 0.0
2016-Jun-20 10:33N 49°12' W 123°03'0 0.0
2016-Jun-20 09:33N 49°12' W 123°03'0 0.0
2016-Jun-20 08:33N 49°12' W 123°03'0 0.0
2016-Jun-20 07:33N 49°12' W 123°03'0 0.0
2016-Jun-20 06:33N 49°12' W 123°03'1 1.5
2016-Jun-20 05:33N 49°12' W 123°05'7 7.2
2016-Jun-20 04:33N 49°15' W 123°15'2 2.0
2016-Jun-20 03:33N 49°13' W 123°13'5 4.6
2016-Jun-20 02:33N 49°12' W 123°06'4 4.1
2016-Jun-20 01:33N 49°11' W 122°60'3 2.6
2016-Jun-20 00:33N 49°09' W 122°57'4 4.5
2016-Jun-19 23:33N 49°08' W 123°04'5 5.0
2016-Jun-19 22:33N 49°07' W 123°11'5 4.9
2016-Jun-19 21:33N 49°06' W 123°18'5 5.1
2016-Jun-19 20:33N 49°07' W 123°26'6 6.2
2016-Jun-19 19:33N 49°09' W 123°35'6 6.4
2016-Jun-19 18:33N 49°11' W 123°44'6 5.6
2016-Jun-19 17:33N 49°11' W 123°53'1 1.4
2016-Jun-19 16:33N 49°12' W 123°52'10 9.7
2016-Jun-19 15:33N 49°14' W 123°37'1010.0
2016-Jun-19 14:33N 49°15' W 123°22'10 9.5
2016-Jun-19 13:33N 49°12' W 123°08'0 0.4
2016-Jun-19 12:33N 49°12' W 123°08'2 1.8
2016-Jun-19 11:33N 49°13' W 123°10'4 4.1
2016-Jun-19 10:33N 49°15' W 123°16'7 6.8
2016-Jun-19 09:33N 49°12' W 123°06'1 0.9
2016-Jun-19 08:33N 49°12' W 123°05'0 0.1
2016-Jun-19 07:33N 49°12' W 123°05'3 3.4
2016-Jun-19 06:33N 49°11' W 122°60'10 9.6
2016-Jun-19 05:33N 49°13' W 122°45'10 2.3
2016-Jun-19 01:12N 49°10' W 122°31'3 5.2
2016-Jun-19 00:33N 49°12' W 122°35'5 5.0
2016-Jun-18 23:33N 49°12' W 122°43'6 5.9
2016-Jun-18 22:33N 49°13' W 122°52'5 5.0
2016-Jun-18 21:33N 49°11' W 122°59'6 6.0
2016-Jun-18 20:33N 49°12' W 123°08'6 6.5
2016-Jun-18 19:33N 49°15' W 123°16'8 7.6
2016-Jun-18 18:33N 49°19' W 123°26'7 6.8
2016-Jun-18 17:34N 49°26' W 123°28'5 5.0
2016-Jun-18 16:30N 49°31' W 123°29'7 8.0
2016-Jun-18 15:33N 49°24' W 123°25'8 8.0
2016-Jun-18 14:33N 49°17' W 123°20'9 9.2
2016-Jun-18 13:33N 49°12' W 123°08'1 1.0
2016-Jun-18 12:33N 49°12' W 123°07'8 8.1
2016-Jun-18 11:32N 49°12' W 122°54'2 1.7
2016-Jun-18 10:33N 49°11' W 122°55'7 6.9
2016-Jun-18 09:33N 49°07' W 123°04'6 6.3
2016-Jun-18 08:33N 49°08' W 123°14'6 5.8
2016-Jun-18 07:33N 49°07' W 123°23'8 8.2
2016-Jun-18 06:33N 49°09' W 123°35'9 8.6
2016-Jun-18 05:33N 49°13' W 123°47'4 4.3
2016-Jun-18 04:33N 49°09' W 123°51'0 0.4
2016-Jun-18 03:33N 49°09' W 123°51'4 3.9
2016-Jun-18 02:33N 49°13' W 123°50'5 5.3
2016-Jun-18 01:33N 49°11' W 123°42'6 5.6
2016-Jun-18 00:34N 49°10' W 123°34'5 5.3
2016-Jun-17 23:33N 49°08' W 123°26'5 5.5
2016-Jun-17 22:33N 49°06' W 123°18'6 5.6
2016-Jun-17 21:33N 49°07' W 123°10'7 7.1
2016-Jun-17 20:33N 49°09' W 122°60'3 2.7
2016-Jun-17 19:30N 49°12' W 122°57'6 5.9
2016-Jun-17 18:33N 49°12' W 123°06'2 1.7
2016-Jun-17 17:33N 49°12' W 123°08'2 2.0
2016-Jun-17 16:33N 49°12' W 123°05'3 3.1
2016-Jun-17 15:33N 49°13' W 123°10'4 4.3
2016-Jun-17 14:33N 49°15' W 123°16'6 6.2
2016-Jun-17 13:33N 49°19' W 123°08'3 2.6
2016-Jun-17 12:34N 49°18' W 123°05'9 9.0
2016-Jun-17 11:33N 49°18' W 123°18'10 9.9
2016-Jun-17 10:33N 49°15' W 123°33'10 9.7
2016-Jun-17 09:33N 49°13' W 123°48'6 5.5
2016-Jun-17 08:33N 49°09' W 123°53'6 5.7
2016-Jun-17 07:33N 49°13' W 123°47'8 7.9
2016-Jun-17 06:33N 49°11' W 123°36'8 8.2
2016-Jun-17 05:33N 49°07' W 123°24'9 8.7
2016-Jun-17 04:33N 49°07' W 123°11'6 6.2
2016-Jun-17 03:33N 49°09' W 123°02'4 3.9
2016-Jun-17 02:33N 49°11' W 122°58'2 1.7
2016-Jun-17 01:33N 49°11' W 122°55'4 3.9
2016-Jun-17 00:34N 49°09' W 123°00'0 0.0
2016-Jun-16 23:33N 49°09' W 123°00'3 2.9
2016-Jun-16 22:34N 49°08' W 123°04'4 4.1
2016-Jun-16 21:34N 49°07' W 123°10'4 3.6
2016-Jun-16 20:33N 49°07' W 123°15'1 1.1
2016-Jun-16 19:34N 49°07' W 123°17'1 0.6
2016-Jun-16 18:34N 49°06' W 123°17'2 2.3
2016-Jun-16 17:33N 49°07' W 123°21'4 3.5
2016-Jun-16 16:33N 49°09' W 123°25'2 1.8
2016-Jun-16 15:33N 49°10' W 123°28'3 3.0
2016-Jun-16 14:33N 49°12' W 123°31'4 3.6
2016-Jun-16 13:33N 49°14' W 123°36'6 5.7
2016-Jun-16 12:33N 49°17' W 123°43'5 5.4
2016-Jun-16 11:33N 49°20' W 123°50'6 5.6
2016-Jun-16 10:33N 49°24' W 123°56'5 5.3
2016-Jun-16 09:33N 49°26' W 124°03'5 5.5
2016-Jun-16 08:33N 49°30' W 124°10'  
Track history (hours):
 
Tides and Currents Weather Stations Pressure Air Temp Water Temp Dewpoint Dewpoint Depression Visibility Wind Speed Wind Dir Waves Ship Positions

Westview Chinook

Last reported at 2016-Jun-26 08:33 UTC. Time now 2016-Jun-26 11:56 UTC.
Position N 49°13' W 122°52'.

Length 15 m.

Type: Tug. MMSI: 316005622.

Date/timePositionNaut miles runAvg speedWind from/ knotsBaromVisibWave heightAir tempDewpointWater temp
2016-Jun-26 08:33N 49°13' W 122°52'4 3.8
2016-Jun-26 07:33N 49°12' W 122°57'1 1.3
2016-Jun-26 06:33N 49°12' W 122°55'5 5.5
2016-Jun-26 05:33N 49°09' W 123°02'1 0.7
2016-Jun-26 04:33N 49°08' W 123°03'0 0.0
2016-Jun-26 03:33N 49°08' W 123°03'0 0.0
2016-Jun-26 02:33N 49°08' W 123°03'1 1.2
2016-Jun-26 01:33N 49°07' W 123°04'4 4.5
2016-Jun-26 00:33N 49°07' W 123°11'4 3.9
2016-Jun-25 23:33N 49°07' W 123°17'4 4.2
2016-Jun-25 22:33N 49°07' W 123°23'6 6.3
2016-Jun-25 21:33N 49°09' W 123°32'7 6.7
2016-Jun-25 20:34N 49°11' W 123°42'6 6.3
2016-Jun-25 19:33N 49°12' W 123°52'3 2.7
2016-Jun-25 18:33N 49°10' W 123°53'7 7.3
2016-Jun-25 17:33N 49°11' W 123°42'1110.6
2016-Jun-25 16:33N 49°08' W 123°27'1010.1
2016-Jun-25 15:33N 49°07' W 123°11'1010.3
2016-Jun-25 14:33N 49°10' W 122°56'8 7.7
2016-Jun-25 13:33N 49°14' W 122°46'0 0.0
2016-Jun-25 12:33N 49°14' W 122°46'0 0.0
2016-Jun-25 11:33N 49°14' W 122°46'0 0.0
2016-Jun-25 10:33N 49°14' W 122°46'0 0.0
2016-Jun-25 09:33N 49°14' W 122°46'0 0.0
2016-Jun-25 08:33N 49°14' W 122°46'0 0.0
2016-Jun-25 07:33N 49°14' W 122°46'6 5.8
2016-Jun-25 06:33N 49°12' W 122°54'7 6.6
2016-Jun-25 05:33N 49°12' W 123°04'2 2.0
2016-Jun-25 04:33N 49°12' W 123°08'6 6.0
2016-Jun-25 03:34N 49°15' W 123°16'7 7.3
2016-Jun-25 02:33N 49°12' W 123°05'8 8.2
2016-Jun-25 01:34N 49°13' W 122°53'5 4.6
2016-Jun-25 00:33N 49°14' W 122°46'0 0.0
2016-Jun-24 23:33N 49°14' W 122°46'0 0.0
2016-Jun-24 22:33N 49°14' W 122°46'0 0.0
2016-Jun-24 21:33N 49°14' W 122°46'0 0.0
2016-Jun-24 20:33N 49°14' W 122°46'0 0.0
2016-Jun-24 19:32N 49°14' W 122°46'0 0.0
2016-Jun-24 18:33N 49°14' W 122°46'0 0.0
2016-Jun-24 17:33N 49°14' W 122°46'0 0.0
2016-Jun-24 16:33N 49°14' W 122°46'0 0.0
2016-Jun-24 15:33N 49°14' W 122°46'0 0.0
2016-Jun-24 14:33N 49°14' W 122°46'0 0.0
2016-Jun-24 13:33N 49°14' W 122°46'0 0.0
2016-Jun-24 12:33N 49°14' W 122°46'0 0.0
2016-Jun-24 11:33N 49°14' W 122°46'0 0.0
2016-Jun-24 10:33N 49°14' W 122°46'0 0.0
2016-Jun-24 09:33N 49°14' W 122°46'0 0.0
2016-Jun-24 08:33N 49°14' W 122°46'2 2.2
2016-Jun-24 07:33N 49°13' W 122°49'10 3.4
2016-Jun-24 04:33N 49°12' W 123°04'4 4.3
2016-Jun-24 03:33N 49°13' W 123°11'5 4.9
2016-Jun-24 02:33N 49°16' W 123°17'5 4.6
2016-Jun-24 01:33N 49°18' W 123°23'5 5.1
2016-Jun-24 00:33N 49°20' W 123°30'5 5.1
2016-Jun-23 23:33N 49°22' W 123°38'5 4.9
2016-Jun-23 22:33N 49°24' W 123°44'5 4.5
2016-Jun-23 21:33N 49°26' W 123°51'4 4.4
2016-Jun-23 20:33N 49°27' W 123°57'5 4.5
2016-Jun-23 19:33N 49°30' W 124°02'5 4.7
2016-Jun-23 18:33N 49°35' W 124°05'5 4.9
2016-Jun-23 17:33N 49°40' W 124°05'6 5.6
2016-Jun-23 16:32N 49°45' W 124°02'5 4.6
2016-Jun-23 15:33N 49°47' W 123°55'3 2.1
2016-Jun-23 14:19N 49°45' W 123°54'3 3.6
2016-Jun-23 13:33N 49°46' W 123°57'1 0.9
2016-Jun-23 12:33N 49°46' W 123°56'2 1.6
2016-Jun-23 11:23N 49°45' W 123°54'3 3.3
2016-Jun-23 10:33N 49°47' W 123°56'3 2.7
2016-Jun-23 09:33N 49°46' W 123°60'6 6.5
2016-Jun-23 08:33N 49°40' W 124°05'7 7.5
2016-Jun-23 07:33N 49°33' W 124°04'15 7.6
2016-Jun-23 05:33N 49°24' W 123°45'8 7.6
2016-Jun-23 04:33N 49°21' W 123°34'7 7.4
2016-Jun-23 03:33N 49°18' W 123°24'6 6.4
2016-Jun-23 02:33N 49°15' W 123°15'5 5.4
2016-Jun-23 01:33N 49°12' W 123°08'0 0.0
2016-Jun-23 00:33N 49°12' W 123°08'0 0.0
2016-Jun-22 23:33N 49°12' W 123°08'0 0.0
2016-Jun-22 22:33N 49°12' W 123°08'0 0.0
2016-Jun-22 21:33N 49°12' W 123°08'6 5.9
2016-Jun-22 20:33N 49°11' W 122°59'3 2.8
2016-Jun-22 19:33N 49°11' W 122°55'2 1.6
2016-Jun-22 18:33N 49°11' W 122°58'5 4.7
2016-Jun-22 17:33N 49°12' W 123°05'1 0.6
2016-Jun-22 16:33N 49°12' W 123°06'5 5.0
2016-Jun-22 15:33N 49°13' W 123°13'2 2.1
2016-Jun-22 14:33N 49°15' W 123°15'4 4.4
2016-Jun-22 13:33N 49°13' W 123°09'4 3.5
2016-Jun-22 12:33N 49°12' W 123°04'1 1.3
2016-Jun-22 11:33N 49°12' W 123°06'0 0.0
2016-Jun-22 10:33N 49°12' W 123°06'0 0.0
2016-Jun-22 09:34N 49°12' W 123°06'5 5.3
2016-Jun-22 08:33N 49°14' W 123°14'9 9.2
2016-Jun-22 07:33N 49°19' W 123°25'9 9.2
2016-Jun-22 06:33N 49°28' W 123°28'0 0.2
2016-Jun-22 05:33N 49°29' W 123°28'6 6.5
2016-Jun-22 04:33N 49°22' W 123°26'6 5.7
2016-Jun-22 03:33N 49°18' W 123°21'7 6.5
2016-Jun-22 02:33N 49°14' W 123°13'5 5.5
2016-Jun-22 01:33N 49°12' W 123°05'4 4.1
2016-Jun-22 00:33N 49°11' W 122°59'6 6.5
2016-Jun-21 23:34N 49°13' W 122°50'9 8.7
2016-Jun-21 22:33N 49°13' W 122°36'2 0.4
2016-Jun-21 18:32N 49°11' W 122°35'6 5.6
2016-Jun-21 17:33N 49°13' W 122°43'7 6.9
2016-Jun-21 16:34N 49°13' W 122°54'6 6.2
2016-Jun-21 15:33N 49°12' W 123°03'3 3.3
2016-Jun-21 14:34N 49°12' W 123°08'6 5.6
2016-Jun-21 13:33N 49°15' W 123°16'9 9.0
2016-Jun-21 12:33N 49°15' W 123°29'9 9.5
2016-Jun-21 11:33N 49°13' W 123°44'7 7.4
2016-Jun-21 10:33N 49°09' W 123°53'4 4.2
2016-Jun-21 09:33N 49°13' W 123°50'8 7.8
2016-Jun-21 08:33N 49°12' W 123°38'8 7.6
2016-Jun-21 07:33N 49°09' W 123°27'16 8.2
2016-Jun-21 05:33N 49°09' W 123°02'5 5.2
2016-Jun-21 04:33N 49°12' W 122°56'1 1.1
2016-Jun-21 03:33N 49°11' W 122°55'6 6.3
2016-Jun-21 02:33N 49°12' W 123°04'1 0.9
2016-Jun-21 01:33N 49°12' W 123°03'0 0.1
2016-Jun-21 00:33N 49°12' W 123°03'0 0.0
2016-Jun-20 23:33N 49°12' W 123°03'0 0.0
2016-Jun-20 22:33N 49°12' W 123°03'0 0.0
2016-Jun-20 21:33N 49°12' W 123°03'0 0.0
2016-Jun-20 20:33N 49°12' W 123°03'0 0.0
2016-Jun-20 19:33N 49°12' W 123°03'0 0.0
2016-Jun-20 18:33N 49°12' W 123°03'2 1.7
2016-Jun-20 17:33N 49°12' W 123°05'0 0.0
2016-Jun-20 16:33N 49°12' W 123°05'2 1.7
2016-Jun-20 15:33N 49°12' W 123°03'0 0.0
2016-Jun-20 14:34N 49°12' W 123°03'0 0.0
2016-Jun-20 13:33N 49°12' W 123°03'0 0.0
2016-Jun-20 12:33N 49°12' W 123°03'0 0.0
2016-Jun-20 11:33N 49°12' W 123°03'0 0.0
2016-Jun-20 10:33N 49°12' W 123°03'0 0.0
2016-Jun-20 09:33N 49°12' W 123°03'0 0.0
2016-Jun-20 08:33N 49°12' W 123°03'0 0.0
2016-Jun-20 07:33N 49°12' W 123°03'0 0.0
2016-Jun-20 06:33N 49°12' W 123°03'1 1.5
2016-Jun-20 05:33N 49°12' W 123°05'7 7.2
2016-Jun-20 04:33N 49°15' W 123°15'2 2.0
2016-Jun-20 03:33N 49°13' W 123°13'5 4.6
2016-Jun-20 02:33N 49°12' W 123°06'4 4.1
2016-Jun-20 01:33N 49°11' W 122°60'3 2.6
2016-Jun-20 00:33N 49°09' W 122°57'4 4.5
2016-Jun-19 23:33N 49°08' W 123°04'5 5.0
2016-Jun-19 22:33N 49°07' W 123°11'5 4.9
2016-Jun-19 21:33N 49°06' W 123°18'5 5.1
2016-Jun-19 20:33N 49°07' W 123°26'6 6.2
2016-Jun-19 19:33N 49°09' W 123°35'6 6.4
2016-Jun-19 18:33N 49°11' W 123°44'6 5.6
2016-Jun-19 17:33N 49°11' W 123°53'1 1.4
2016-Jun-19 16:33N 49°12' W 123°52'10 9.7
2016-Jun-19 15:33N 49°14' W 123°37'1010.0
2016-Jun-19 14:33N 49°15' W 123°22'10 9.5
2016-Jun-19 13:33N 49°12' W 123°08'0 0.4
2016-Jun-19 12:33N 49°12' W 123°08'2 1.8
2016-Jun-19 11:33N 49°13' W 123°10'4 4.1
2016-Jun-19 10:33N 49°15' W 123°16'7 6.8
2016-Jun-19 09:33N 49°12' W 123°06'1 0.9
2016-Jun-19 08:33N 49°12' W 123°05'0 0.1
2016-Jun-19 07:33N 49°12' W 123°05'3 3.4
2016-Jun-19 06:33N 49°11' W 122°60'10 9.6
2016-Jun-19 05:33N 49°13' W 122°45'10 2.3
2016-Jun-19 01:12N 49°10' W 122°31'3 5.2
2016-Jun-19 00:33N 49°12' W 122°35'5 5.0
2016-Jun-18 23:33N 49°12' W 122°43'6 5.9
2016-Jun-18 22:33N 49°13' W 122°52'5 5.0
2016-Jun-18 21:33N 49°11' W 122°59'6 6.0
2016-Jun-18 20:33N 49°12' W 123°08'6 6.5
2016-Jun-18 19:33N 49°15' W 123°16'8 7.6
2016-Jun-18 18:33N 49°19' W 123°26'7 6.8
2016-Jun-18 17:34N 49°26' W 123°28'5 5.0
2016-Jun-18 16:30N 49°31' W 123°29'7 8.0
2016-Jun-18 15:33N 49°24' W 123°25'8 8.0
2016-Jun-18 14:33N 49°17' W 123°20'9 9.2
2016-Jun-18 13:33N 49°12' W 123°08'1 1.0
2016-Jun-18 12:33N 49°12' W 123°07'8 8.1
2016-Jun-18 11:32N 49°12' W 122°54'2 1.7
2016-Jun-18 10:33N 49°11' W 122°55'7 6.9
2016-Jun-18 09:33N 49°07' W 123°04'6 6.3
2016-Jun-18 08:33N 49°08' W 123°14'6 5.8
2016-Jun-18 07:33N 49°07' W 123°23'8 8.2
2016-Jun-18 06:33N 49°09' W 123°35'9 8.6
2016-Jun-18 05:33N 49°13' W 123°47'4 4.3
2016-Jun-18 04:33N 49°09' W 123°51'0 0.4
2016-Jun-18 03:33N 49°09' W 123°51'4 3.9
2016-Jun-18 02:33N 49°13' W 123°50'5 5.3
2016-Jun-18 01:33N 49°11' W 123°42'6 5.6
2016-Jun-18 00:34N 49°10' W 123°34'5 5.3
2016-Jun-17 23:33N 49°08' W 123°26'5 5.5
2016-Jun-17 22:33N 49°06' W 123°18'6 5.6
2016-Jun-17 21:33N 49°07' W 123°10'7 7.1
2016-Jun-17 20:33N 49°09' W 122°60'3 2.7
2016-Jun-17 19:30N 49°12' W 122°57'6 5.9
2016-Jun-17 18:33N 49°12' W 123°06'2 1.7
2016-Jun-17 17:33N 49°12' W 123°08'2 2.0
2016-Jun-17 16:33N 49°12' W 123°05'3 3.1
2016-Jun-17 15:33N 49°13' W 123°10'4 4.3
2016-Jun-17 14:33N 49°15' W 123°16'6 6.2
2016-Jun-17 13:33N 49°19' W 123°08'3 2.6
2016-Jun-17 12:34N 49°18' W 123°05'9 9.0
2016-Jun-17 11:33N 49°18' W 123°18'10 9.9
2016-Jun-17 10:33N 49°15' W 123°33'10 9.7
2016-Jun-17 09:33N 49°13' W 123°48'6 5.5
2016-Jun-17 08:33N 49°09' W 123°53'6 5.7
2016-Jun-17 07:33N 49°13' W 123°47'8 7.9
2016-Jun-17 06:33N 49°11' W 123°36'8 8.2
2016-Jun-17 05:33N 49°07' W 123°24'9 8.7
2016-Jun-17 04:33N 49°07' W 123°11'6 6.2
2016-Jun-17 03:33N 49°09' W 123°02'4 3.9
2016-Jun-17 02:33N 49°11' W 122°58'2 1.7
2016-Jun-17 01:33N 49°11' W 122°55'4 3.9
2016-Jun-17 00:34N 49°09' W 123°00'0 0.0
2016-Jun-16 23:33N 49°09' W 123°00'3 2.9
2016-Jun-16 22:34N 49°08' W 123°04'4 4.1
2016-Jun-16 21:34N 49°07' W 123°10'4 3.6
2016-Jun-16 20:33N 49°07' W 123°15'1 1.1
2016-Jun-16 19:34N 49°07' W 123°17'1 0.6
2016-Jun-16 18:34N 49°06' W 123°17'2 2.3
2016-Jun-16 17:33N 49°07' W 123°21'4 3.5
2016-Jun-16 16:33N 49°09' W 123°25'2 1.8
2016-Jun-16 15:33N 49°10' W 123°28'3 3.0
2016-Jun-16 14:33N 49°12' W 123°31'4 3.6
2016-Jun-16 13:33N 49°14' W 123°36'6 5.7
2016-Jun-16 12:33N 49°17' W 123°43'5 5.4
2016-Jun-16 11:33N 49°20' W 123°50'6 5.6
2016-Jun-16 10:33N 49°24' W 123°56'5 5.3
2016-Jun-16 09:33N 49°26' W 124°03'5 5.5
2016-Jun-16 08:33N 49°30' W 124°10'  

Dump ship's entire track history